sensor_id;sensor_type;location;lat;lon;timestamp;noise_LAeq;noise_LA_min;noise_LA_max;noise_LA01;noise_LA95
43512;Laerm;34054;52.100;5.116;2024-03-08T00:00:19;32.22;30.80;36.85;;
43512;Laerm;34054;52.100;5.116;2024-03-08T00:00:52;32.07;30.92;33.77;;
43512;Laerm;34054;52.100;5.116;2024-03-08T00:01:25;32.05;31.09;33.55;;
43512;Laerm;34054;52.100;5.116;2024-03-08T00:01:56;32.06;30.90;33.49;;
43512;Laerm;34054;52.100;5.116;2024-03-08T00:02:28;32.04;30.82;33.83;;
43512;Laerm;34054;52.100;5.116;2024-03-08T00:03:01;32.02;30.76;35.13;;
43512;Laerm;34054;52.100;5.116;2024-03-08T00:03:33;32.01;30.91;33.55;;
43512;Laerm;34054;52.100;5.116;2024-03-08T00:04:05;32.01;30.81;33.67;;
43512;Laerm;34054;52.100;5.116;2024-03-08T00:04:38;32.03;30.91;33.89;;
43512;Laerm;34054;52.100;5.116;2024-03-08T00:05:10;32.09;30.69;36.10;;
43512;Laerm;34054;52.100;5.116;2024-03-08T00:05:42;32.13;30.98;33.82;;
43512;Laerm;34054;52.100;5.116;2024-03-08T00:06:15;32.11;31.11;34.00;;
43512;Laerm;34054;52.100;5.116;2024-03-08T00:06:47;32.11;30.87;33.76;;
43512;Laerm;34054;52.100;5.116;2024-03-08T00:07:19;32.18;31.04;33.88;;
43512;Laerm;34054;52.100;5.116;2024-03-08T00:07:52;32.29;31.19;35.35;;
43512;Laerm;34054;52.100;5.116;2024-03-08T00:08:25;32.17;31.11;33.92;;
43512;Laerm;34054;52.100;5.116;2024-03-08T00:08:57;32.27;31.03;33.91;;
43512;Laerm;34054;52.100;5.116;2024-03-08T00:09:28;32.22;31.04;33.99;;
43512;Laerm;34054;52.100;5.116;2024-03-08T00:10:02;32.27;30.92;35.33;;
43512;Laerm;34054;52.100;5.116;2024-03-08T00:10:35;32.15;30.84;33.73;;
43512;Laerm;34054;52.100;5.116;2024-03-08T00:11:07;32.12;30.73;36.84;;
43512;Laerm;34054;52.100;5.116;2024-03-08T00:11:39;32.11;31.06;33.73;;
43512;Laerm;34054;52.100;5.116;2024-03-08T00:12:11;32.13;31.01;33.92;;
43512;Laerm;34054;52.100;5.116;2024-03-08T00:12:45;32.17;31.10;33.91;;
43512;Laerm;34054;52.100;5.116;2024-03-08T00:13:17;32.20;31.06;33.93;;
43512;Laerm;34054;52.100;5.116;2024-03-08T00:13:49;32.10;30.76;34.21;;
43512;Laerm;34054;52.100;5.116;2024-03-08T00:14:20;32.17;31.18;33.98;;
43512;Laerm;34054;52.100;5.116;2024-03-08T00:14:53;32.16;31.09;33.97;;
43512;Laerm;34054;52.100;5.116;2024-03-08T00:15:26;32.15;30.75;33.75;;
43512;Laerm;34054;52.100;5.116;2024-03-08T00:15:57;32.09;31.00;33.47;;
43512;Laerm;34054;52.100;5.116;2024-03-08T00:16:30;32.16;30.88;33.66;;
43512;Laerm;34054;52.100;5.116;2024-03-08T00:17:01;32.24;30.93;33.91;;
43512;Laerm;34054;52.100;5.116;2024-03-08T00:17:34;32.17;30.86;34.12;;
43512;Laerm;34054;52.100;5.116;2024-03-08T00:18:06;32.27;30.92;41.59;;
43512;Laerm;34054;52.100;5.116;2024-03-08T00:18:38;32.09;30.90;34.40;;
43512;Laerm;34054;52.100;5.116;2024-03-08T00:19:10;32.08;31.01;33.69;;
43512;Laerm;34054;52.100;5.116;2024-03-08T00:19:41;32.13;31.19;33.59;;
43512;Laerm;34054;52.100;5.116;2024-03-08T00:20:13;32.08;30.97;33.65;;
43512;Laerm;34054;52.100;5.116;2024-03-08T00:20:45;32.10;30.96;33.95;;
43512;Laerm;34054;52.100;5.116;2024-03-08T00:21:17;32.17;30.68;33.45;;
43512;Laerm;34054;52.100;5.116;2024-03-08T00:21:48;32.14;30.93;34.33;;
43512;Laerm;34054;52.100;5.116;2024-03-08T00:22:20;32.13;30.86;33.89;;
43512;Laerm;34054;52.100;5.116;2024-03-08T00:22:54;32.19;31.02;34.02;;
43512;Laerm;34054;52.100;5.116;2024-03-08T00:23:29;32.16;31.02;34.00;;
43512;Laerm;34054;52.100;5.116;2024-03-08T00:24:00;32.13;30.80;33.85;;
43512;Laerm;34054;52.100;5.116;2024-03-08T00:24:32;32.16;30.94;33.77;;
43512;Laerm;34054;52.100;5.116;2024-03-08T00:25:06;32.15;30.84;33.61;;
43512;Laerm;34054;52.100;5.116;2024-03-08T00:25:39;32.16;30.75;33.61;;
43512;Laerm;34054;52.100;5.116;2024-03-08T00:26:11;32.17;30.98;33.71;;
43512;Laerm;34054;52.100;5.116;2024-03-08T00:26:44;32.13;30.83;33.96;;
43512;Laerm;34054;52.100;5.116;2024-03-08T00:27:15;32.10;30.99;33.84;;
43512;Laerm;34054;52.100;5.116;2024-03-08T00:27:47;32.15;31.16;33.80;;
43512;Laerm;34054;52.100;5.116;2024-03-08T00:28:20;32.16;31.09;33.97;;
43512;Laerm;34054;52.100;5.116;2024-03-08T00:28:53;32.14;31.02;33.76;;
43512;Laerm;34054;52.100;5.116;2024-03-08T00:29:25;32.19;30.82;33.67;;
43512;Laerm;34054;52.100;5.116;2024-03-08T00:29:56;32.12;31.04;34.36;;
43512;Laerm;34054;52.100;5.116;2024-03-08T00:30:28;32.14;30.93;33.82;;
43512;Laerm;34054;52.100;5.116;2024-03-08T00:31:02;32.15;30.84;33.74;;
43512;Laerm;34054;52.100;5.116;2024-03-08T00:31:34;32.40;30.93;38.37;;
43512;Laerm;34054;52.100;5.116;2024-03-08T00:32:06;32.88;31.27;43.36;;
43512;Laerm;34054;52.100;5.116;2024-03-08T00:32:39;32.34;30.93;35.07;;
43512;Laerm;34054;52.100;5.116;2024-03-08T00:33:10;32.13;30.97;33.51;;
43512;Laerm;34054;52.100;5.116;2024-03-08T00:33:43;32.14;31.06;33.52;;
43512;Laerm;34054;52.100;5.116;2024-03-08T00:34:14;32.16;31.09;34.26;;
43512;Laerm;34054;52.100;5.116;2024-03-08T00:34:46;32.16;31.09;33.69;;
43512;Laerm;34054;52.100;5.116;2024-03-08T00:35:17;32.16;30.90;34.05;;
43512;Laerm;34054;52.100;5.116;2024-03-08T00:35:50;32.20;30.99;34.07;;
43512;Laerm;34054;52.100;5.116;2024-03-08T00:36:21;32.19;30.96;34.14;;
43512;Laerm;34054;52.100;5.116;2024-03-08T00:36:53;32.24;30.86;33.80;;
43512;Laerm;34054;52.100;5.116;2024-03-08T00:37:25;32.27;30.83;34.45;;
43512;Laerm;34054;52.100;5.116;2024-03-08T00:37:59;32.13;30.97;33.69;;
43512;Laerm;34054;52.100;5.116;2024-03-08T00:38:30;32.17;30.93;33.82;;
43512;Laerm;34054;52.100;5.116;2024-03-08T00:39:03;32.15;31.20;33.90;;
43512;Laerm;34054;52.100;5.116;2024-03-08T00:39:37;32.17;31.10;33.66;;
43512;Laerm;34054;52.100;5.116;2024-03-08T00:40:10;32.17;30.97;33.65;;
43512;Laerm;34054;52.100;5.116;2024-03-08T00:40:42;32.18;30.82;33.83;;
43512;Laerm;34054;52.100;5.116;2024-03-08T00:41:13;32.18;31.11;33.75;;
43512;Laerm;34054;52.100;5.116;2024-03-08T00:41:46;32.13;30.86;33.86;;
43512;Laerm;34054;52.100;5.116;2024-03-08T00:42:18;32.14;30.76;33.85;;
43512;Laerm;34054;52.100;5.116;2024-03-08T00:42:49;32.18;30.77;33.79;;
43512;Laerm;34054;52.100;5.116;2024-03-08T00:43:21;32.17;31.06;34.38;;
43512;Laerm;34054;52.100;5.116;2024-03-08T00:43:53;33.31;31.01;42.25;;
43512;Laerm;34054;52.100;5.116;2024-03-08T00:44:25;32.96;31.24;40.84;;
43512;Laerm;34054;52.100;5.116;2024-03-08T00:44:56;32.12;31.01;33.63;;
43512;Laerm;34054;52.100;5.116;2024-03-08T00:45:29;32.22;31.13;33.90;;
43512;Laerm;34054;52.100;5.116;2024-03-08T00:46:02;32.24;31.05;34.19;;
43512;Laerm;34054;52.100;5.116;2024-03-08T00:46:33;32.21;31.04;33.90;;
43512;Laerm;34054;52.100;5.116;2024-03-08T00:47:06;32.20;30.97;33.83;;
43512;Laerm;34054;52.100;5.116;2024-03-08T00:47:38;32.23;30.96;33.99;;
43512;Laerm;34054;52.100;5.116;2024-03-08T00:48:10;32.22;31.21;34.17;;
43512;Laerm;34054;52.100;5.116;2024-03-08T00:48:42;32.29;31.31;34.65;;
43512;Laerm;34054;52.100;5.116;2024-03-08T00:49:14;32.16;31.08;34.01;;
43512;Laerm;34054;52.100;5.116;2024-03-08T00:49:46;32.66;30.76;51.03;;
43512;Laerm;34054;52.100;5.116;2024-03-08T00:50:19;32.35;31.29;34.62;;
43512;Laerm;34054;52.100;5.116;2024-03-08T00:50:50;32.19;31.03;33.82;;
43512;Laerm;34054;52.100;5.116;2024-03-08T00:51:22;32.20;30.89;33.63;;
43512;Laerm;34054;52.100;5.116;2024-03-08T00:51:53;32.26;31.29;34.03;;
43512;Laerm;34054;52.100;5.116;2024-03-08T00:52:26;32.27;31.07;34.12;;
43512;Laerm;34054;52.100;5.116;2024-03-08T00:52:59;32.19;31.07;34.26;;
43512;Laerm;34054;52.100;5.116;2024-03-08T00:53:31;32.36;31.17;34.03;;
43512;Laerm;34054;52.100;5.116;2024-03-08T00:54:04;32.29;31.10;34.60;;
43512;Laerm;34054;52.100;5.116;2024-03-08T00:54:36;32.16;31.09;34.28;;
43512;Laerm;34054;52.100;5.116;2024-03-08T00:55:08;32.22;31.07;34.00;;
43512;Laerm;34054;52.100;5.116;2024-03-08T00:55:41;32.20;31.12;34.43;;
43512;Laerm;34054;52.100;5.116;2024-03-08T00:56:13;32.23;31.18;33.93;;
43512;Laerm;34054;52.100;5.116;2024-03-08T00:56:45;32.26;31.14;34.19;;
43512;Laerm;34054;52.100;5.116;2024-03-08T00:57:17;32.27;31.04;33.90;;
43512;Laerm;34054;52.100;5.116;2024-03-08T00:57:50;32.29;31.11;34.09;;
43512;Laerm;34054;52.100;5.116;2024-03-08T00:58:21;32.19;30.98;34.11;;
43512;Laerm;34054;52.100;5.116;2024-03-08T00:58:55;32.21;31.03;34.02;;
43512;Laerm;34054;52.100;5.116;2024-03-08T00:59:26;32.25;31.20;33.88;;
43512;Laerm;34054;52.100;5.116;2024-03-08T00:59:59;32.20;31.01;33.77;;
43512;Laerm;34054;52.100;5.116;2024-03-08T01:00:30;32.21;31.15;34.09;;
43512;Laerm;34054;52.100;5.116;2024-03-08T01:01:02;32.21;31.12;33.99;;
43512;Laerm;34054;52.100;5.116;2024-03-08T01:01:33;32.27;31.09;34.48;;
43512;Laerm;34054;52.100;5.116;2024-03-08T01:02:06;32.28;31.00;34.23;;
43512;Laerm;34054;52.100;5.116;2024-03-08T01:02:38;32.21;31.01;33.88;;
43512;Laerm;34054;52.100;5.116;2024-03-08T01:03:09;32.21;30.99;33.95;;
43512;Laerm;34054;52.100;5.116;2024-03-08T01:03:43;32.18;30.79;34.23;;
43512;Laerm;34054;52.100;5.116;2024-03-08T01:04:14;32.20;30.64;34.09;;
43512;Laerm;34054;52.100;5.116;2024-03-08T01:04:46;32.30;31.13;34.35;;
43512;Laerm;34054;52.100;5.116;2024-03-08T01:05:18;32.26;31.19;34.31;;
43512;Laerm;34054;52.100;5.116;2024-03-08T01:05:50;32.27;31.03;33.89;;
43512;Laerm;34054;52.100;5.116;2024-03-08T01:06:23;32.26;31.21;34.07;;
43512;Laerm;34054;52.100;5.116;2024-03-08T01:06:55;32.21;31.03;33.84;;
43512;Laerm;34054;52.100;5.116;2024-03-08T01:07:27;32.23;31.07;34.03;;
43512;Laerm;34054;52.100;5.116;2024-03-08T01:08:02;32.23;31.11;33.89;;
43512;Laerm;34054;52.100;5.116;2024-03-08T01:08:34;32.24;31.06;34.17;;
43512;Laerm;34054;52.100;5.116;2024-03-08T01:09:09;32.22;31.13;33.93;;
43512;Laerm;34054;52.100;5.116;2024-03-08T01:09:41;32.26;31.25;33.93;;
43512;Laerm;34054;52.100;5.116;2024-03-08T01:10:14;32.30;30.78;34.80;;
43512;Laerm;34054;52.100;5.116;2024-03-08T01:10:45;32.30;31.02;34.13;;
43512;Laerm;34054;52.100;5.116;2024-03-08T01:11:17;32.38;31.44;34.31;;
43512;Laerm;34054;52.100;5.116;2024-03-08T01:11:49;32.28;31.14;34.27;;
43512;Laerm;34054;52.100;5.116;2024-03-08T01:12:21;32.27;31.21;34.29;;
43512;Laerm;34054;52.100;5.116;2024-03-08T01:12:53;32.25;31.01;33.89;;
43512;Laerm;34054;52.100;5.116;2024-03-08T01:13:25;32.28;31.22;34.28;;
43512;Laerm;34054;52.100;5.116;2024-03-08T01:13:58;32.35;31.13;33.92;;
43512;Laerm;34054;52.100;5.116;2024-03-08T01:14:29;32.32;31.18;34.25;;
43512;Laerm;34054;52.100;5.116;2024-03-08T01:15:02;32.31;30.92;34.18;;
43512;Laerm;34054;52.100;5.116;2024-03-08T01:15:34;32.33;31.30;34.45;;
43512;Laerm;34054;52.100;5.116;2024-03-08T01:16:07;32.29;30.95;34.16;;
43512;Laerm;34054;52.100;5.116;2024-03-08T01:16:38;32.31;31.30;34.00;;
43512;Laerm;34054;52.100;5.116;2024-03-08T01:17:10;32.48;31.08;39.61;;
43512;Laerm;34054;52.100;5.116;2024-03-08T01:17:43;32.33;31.02;34.33;;
43512;Laerm;34054;52.100;5.116;2024-03-08T01:18:15;32.33;31.24;34.39;;
43512;Laerm;34054;52.100;5.116;2024-03-08T01:18:47;32.34;31.36;34.13;;
43512;Laerm;34054;52.100;5.116;2024-03-08T01:19:19;32.33;30.89;34.06;;
43512;Laerm;34054;52.100;5.116;2024-03-08T01:19:51;32.29;30.97;34.55;;
43512;Laerm;34054;52.100;5.116;2024-03-08T01:20:24;32.30;31.25;33.70;;
43512;Laerm;34054;52.100;5.116;2024-03-08T01:20:56;32.45;31.24;36.20;;
43512;Laerm;34054;52.100;5.116;2024-03-08T01:21:27;32.34;31.02;33.94;;
43512;Laerm;34054;52.100;5.116;2024-03-08T01:21:59;32.29;31.15;33.86;;
43512;Laerm;34054;52.100;5.116;2024-03-08T01:22:31;32.32;31.21;34.17;;
43512;Laerm;34054;52.100;5.116;2024-03-08T01:23:04;32.31;31.16;34.18;;
43512;Laerm;34054;52.100;5.116;2024-03-08T01:23:38;32.37;31.19;34.63;;
43512;Laerm;34054;52.100;5.116;2024-03-08T01:24:10;32.34;31.32;34.25;;
43512;Laerm;34054;52.100;5.116;2024-03-08T01:24:42;32.32;30.96;33.87;;
43512;Laerm;34054;52.100;5.116;2024-03-08T01:25:14;32.34;31.24;33.91;;
43512;Laerm;34054;52.100;5.116;2024-03-08T01:25:46;32.31;31.14;34.74;;
43512;Laerm;34054;52.100;5.116;2024-03-08T01:26:18;32.33;31.27;34.58;;
43512;Laerm;34054;52.100;5.116;2024-03-08T01:26:50;32.38;31.11;34.13;;
43512;Laerm;34054;52.100;5.116;2024-03-08T01:27:22;32.39;31.14;34.38;;
43512;Laerm;34054;52.100;5.116;2024-03-08T01:27:56;32.39;31.33;34.00;;
43512;Laerm;34054;52.100;5.116;2024-03-08T01:28:27;32.43;31.23;34.14;;
43512;Laerm;34054;52.100;5.116;2024-03-08T01:28:59;32.43;31.38;34.08;;
43512;Laerm;34054;52.100;5.116;2024-03-08T01:29:30;32.38;31.28;34.31;;
43512;Laerm;34054;52.100;5.116;2024-03-08T01:30:05;32.33;31.15;34.34;;
43512;Laerm;34054;52.100;5.116;2024-03-08T01:30:37;32.32;31.16;34.07;;
43512;Laerm;34054;52.100;5.116;2024-03-08T01:31:08;32.35;31.31;34.12;;
43512;Laerm;34054;52.100;5.116;2024-03-08T01:31:41;32.37;31.19;34.39;;
43512;Laerm;34054;52.100;5.116;2024-03-08T01:32:13;32.38;31.08;34.10;;
43512;Laerm;34054;52.100;5.116;2024-03-08T01:32:44;32.38;31.29;33.97;;
43512;Laerm;34054;52.100;5.116;2024-03-08T01:33:17;32.39;31.13;33.88;;
43512;Laerm;34054;52.100;5.116;2024-03-08T01:33:48;32.43;31.32;34.50;;
43512;Laerm;34054;52.100;5.116;2024-03-08T01:34:21;32.37;31.09;34.27;;
43512;Laerm;34054;52.100;5.116;2024-03-08T01:34:53;32.34;30.99;33.81;;
43512;Laerm;34054;52.100;5.116;2024-03-08T01:35:24;32.38;31.05;34.10;;
43512;Laerm;34054;52.100;5.116;2024-03-08T01:35:58;32.46;31.14;34.46;;
43512;Laerm;34054;52.100;5.116;2024-03-08T01:36:30;32.40;31.16;34.95;;
43512;Laerm;34054;52.100;5.116;2024-03-08T01:37:02;32.41;31.32;34.34;;
43512;Laerm;34054;52.100;5.116;2024-03-08T01:37:33;32.37;31.02;34.16;;
43512;Laerm;34054;52.100;5.116;2024-03-08T01:38:07;32.41;31.46;34.33;;
43512;Laerm;34054;52.100;5.116;2024-03-08T01:38:39;32.37;31.26;34.21;;
43512;Laerm;34054;52.100;5.116;2024-03-08T01:39:10;32.45;31.44;33.99;;
43512;Laerm;34054;52.100;5.116;2024-03-08T01:39:42;32.45;31.32;34.28;;
43512;Laerm;34054;52.100;5.116;2024-03-08T01:40:15;32.43;31.17;34.05;;
43512;Laerm;34054;52.100;5.116;2024-03-08T01:40:48;32.49;31.17;35.99;;
43512;Laerm;34054;52.100;5.116;2024-03-08T01:41:19;32.45;31.05;34.58;;
43512;Laerm;34054;52.100;5.116;2024-03-08T01:41:51;32.44;31.17;34.24;;
43512;Laerm;34054;52.100;5.116;2024-03-08T01:42:25;32.48;31.06;34.33;;
43512;Laerm;34054;52.100;5.116;2024-03-08T01:42:57;32.41;31.38;34.32;;
43512;Laerm;34054;52.100;5.116;2024-03-08T01:43:46;32.74;31.32;48.43;;
43512;Laerm;34054;52.100;5.116;2024-03-08T01:44:18;32.45;31.08;34.54;;
43512;Laerm;34054;52.100;5.116;2024-03-08T01:44:50;32.48;31.17;35.31;;
43512;Laerm;34054;52.100;5.116;2024-03-08T01:45:22;32.51;31.13;34.35;;
43512;Laerm;34054;52.100;5.116;2024-03-08T01:45:56;32.52;31.49;34.16;;
43512;Laerm;34054;52.100;5.116;2024-03-08T01:46:30;32.46;31.28;34.20;;
43512;Laerm;34054;52.100;5.116;2024-03-08T01:47:03;32.51;31.34;34.23;;
43512;Laerm;34054;52.100;5.116;2024-03-08T01:47:35;32.52;31.57;34.73;;
43512;Laerm;34054;52.100;5.116;2024-03-08T01:48:08;32.52;31.28;34.53;;
43512;Laerm;34054;52.100;5.116;2024-03-08T01:48:39;32.48;31.50;34.61;;
43512;Laerm;34054;52.100;5.116;2024-03-08T01:49:13;32.51;31.14;34.11;;
43512;Laerm;34054;52.100;5.116;2024-03-08T01:49:45;32.53;30.64;34.48;;
43512;Laerm;34054;52.100;5.116;2024-03-08T01:50:17;32.52;31.40;34.67;;
43512;Laerm;34054;52.100;5.116;2024-03-08T01:50:52;32.52;31.26;34.49;;
43512;Laerm;34054;52.100;5.116;2024-03-08T01:51:25;32.54;31.23;34.59;;
43512;Laerm;34054;52.100;5.116;2024-03-08T01:51:59;32.52;31.22;35.07;;
43512;Laerm;34054;52.100;5.116;2024-03-08T01:52:33;32.54;31.41;34.24;;
43512;Laerm;34054;52.100;5.116;2024-03-08T01:53:08;32.49;31.24;34.54;;
43512;Laerm;34054;52.100;5.116;2024-03-08T01:53:45;32.51;31.09;34.12;;
43512;Laerm;34054;52.100;5.116;2024-03-08T01:54:19;32.56;31.41;34.69;;
43512;Laerm;34054;52.100;5.116;2024-03-08T01:54:51;32.58;31.58;34.63;;
43512;Laerm;34054;52.100;5.116;2024-03-08T01:55:22;32.58;31.26;34.07;;
43512;Laerm;34054;52.100;5.116;2024-03-08T01:55:57;32.55;31.27;34.19;;
43512;Laerm;34054;52.100;5.116;2024-03-08T01:56:30;32.55;31.29;36.94;;
43512;Laerm;34054;52.100;5.116;2024-03-08T01:57:03;32.56;31.22;34.66;;
43512;Laerm;34054;52.100;5.116;2024-03-08T01:57:35;32.58;31.43;34.12;;
43512;Laerm;34054;52.100;5.116;2024-03-08T01:58:10;32.57;31.23;34.45;;
43512;Laerm;34054;52.100;5.116;2024-03-08T01:58:42;32.53;31.02;34.11;;
43512;Laerm;34054;52.100;5.116;2024-03-08T01:59:15;32.62;31.35;34.41;;
43512;Laerm;34054;52.100;5.116;2024-03-08T01:59:48;32.61;31.50;34.67;;
43512;Laerm;34054;52.100;5.116;2024-03-08T02:00:21;32.62;31.52;35.46;;
43512;Laerm;34054;52.100;5.116;2024-03-08T02:00:53;32.63;31.38;34.59;;
43512;Laerm;34054;52.100;5.116;2024-03-08T02:01:25;32.59;31.44;35.05;;
43512;Laerm;34054;52.100;5.116;2024-03-08T02:02:01;32.57;31.49;35.07;;
43512;Laerm;34054;52.100;5.116;2024-03-08T02:02:33;32.58;31.55;35.34;;
43512;Laerm;34054;52.100;5.116;2024-03-08T02:03:05;32.61;31.38;35.18;;
43512;Laerm;34054;52.100;5.116;2024-03-08T02:03:36;32.56;31.40;35.20;;
43512;Laerm;34054;52.100;5.116;2024-03-08T02:04:09;32.57;31.25;34.59;;
43512;Laerm;34054;52.100;5.116;2024-03-08T02:04:41;32.60;31.49;34.84;;
43512;Laerm;34054;52.100;5.116;2024-03-08T02:05:13;32.57;31.39;34.52;;
43512;Laerm;34054;52.100;5.116;2024-03-08T02:05:45;32.59;31.41;34.47;;
43512;Laerm;34054;52.100;5.116;2024-03-08T02:06:18;32.59;31.50;34.98;;
43512;Laerm;34054;52.100;5.116;2024-03-08T02:06:49;32.59;31.55;35.34;;
43512;Laerm;34054;52.100;5.116;2024-03-08T02:07:21;32.65;31.46;34.87;;
43512;Laerm;34054;52.100;5.116;2024-03-08T02:07:54;32.63;31.42;34.95;;
43512;Laerm;34054;52.100;5.116;2024-03-08T02:08:27;32.70;31.54;34.64;;
43512;Laerm;34054;52.100;5.116;2024-03-08T02:09:00;32.68;31.69;34.53;;
43512;Laerm;34054;52.100;5.116;2024-03-08T02:09:32;32.71;31.62;34.16;;
43512;Laerm;34054;52.100;5.116;2024-03-08T02:10:06;32.66;31.65;34.29;;
43512;Laerm;34054;52.100;5.116;2024-03-08T02:10:38;32.60;31.63;34.87;;
43512;Laerm;34054;52.100;5.116;2024-03-08T02:11:10;32.61;31.41;34.99;;
43512;Laerm;34054;52.100;5.116;2024-03-08T02:11:43;32.58;31.34;34.68;;
43512;Laerm;34054;52.100;5.116;2024-03-08T02:12:15;32.65;31.50;35.11;;
43512;Laerm;34054;52.100;5.116;2024-03-08T02:12:47;32.69;31.40;34.86;;
43512;Laerm;34054;52.100;5.116;2024-03-08T02:13:19;32.69;31.57;35.11;;
43512;Laerm;34054;52.100;5.116;2024-03-08T02:13:51;32.69;31.26;34.60;;
43512;Laerm;34054;52.100;5.116;2024-03-08T02:14:23;32.67;31.51;34.80;;
43512;Laerm;34054;52.100;5.116;2024-03-08T02:14:54;32.69;31.20;34.88;;
43512;Laerm;34054;52.100;5.116;2024-03-08T02:15:51;32.74;31.24;34.88;;
43512;Laerm;34054;52.100;5.116;2024-03-08T02:16:23;32.77;31.62;34.73;;
43512;Laerm;34054;52.100;5.116;2024-03-08T02:16:54;32.78;31.61;35.04;;
43512;Laerm;34054;52.100;5.116;2024-03-08T02:17:29;32.72;31.48;34.56;;
43512;Laerm;34054;52.100;5.116;2024-03-08T02:18:02;32.77;31.42;34.69;;
43512;Laerm;34054;52.100;5.116;2024-03-08T02:18:34;32.72;31.50;34.90;;
43512;Laerm;34054;52.100;5.116;2024-03-08T02:19:05;32.75;31.65;34.79;;
43512;Laerm;34054;52.100;5.116;2024-03-08T02:19:40;32.83;31.72;34.76;;
43512;Laerm;34054;52.100;5.116;2024-03-08T02:20:12;32.77;31.63;35.50;;
43512;Laerm;34054;52.100;5.116;2024-03-08T02:20:46;32.77;31.62;35.46;;
43512;Laerm;34054;52.100;5.116;2024-03-08T02:21:18;32.84;31.57;35.07;;
43512;Laerm;34054;52.100;5.116;2024-03-08T02:21:54;32.74;31.37;35.33;;
43512;Laerm;34054;52.100;5.116;2024-03-08T02:22:26;32.74;31.35;35.08;;
43512;Laerm;34054;52.100;5.116;2024-03-08T02:22:58;32.74;31.52;35.18;;
43512;Laerm;34054;52.100;5.116;2024-03-08T02:23:30;32.73;31.67;35.52;;
43512;Laerm;34054;52.100;5.116;2024-03-08T02:24:05;32.74;31.63;34.74;;
43512;Laerm;34054;52.100;5.116;2024-03-08T02:24:37;32.72;31.43;35.14;;
43512;Laerm;34054;52.100;5.116;2024-03-08T02:25:09;32.77;31.59;34.72;;
43512;Laerm;34054;52.100;5.116;2024-03-08T02:25:41;32.77;31.42;34.74;;
43512;Laerm;34054;52.100;5.116;2024-03-08T02:26:14;32.81;31.56;35.00;;
43512;Laerm;34054;52.100;5.116;2024-03-08T02:26:45;32.77;31.20;34.58;;
43512;Laerm;34054;52.100;5.116;2024-03-08T02:27:23;32.79;31.57;34.99;;
43512;Laerm;34054;52.100;5.116;2024-03-08T02:27:55;32.75;31.52;35.06;;
43512;Laerm;34054;52.100;5.116;2024-03-08T02:28:28;32.78;31.70;35.66;;
43512;Laerm;34054;52.100;5.116;2024-03-08T02:29:00;32.80;31.50;35.04;;
43512;Laerm;34054;52.100;5.116;2024-03-08T02:29:33;32.84;31.70;34.56;;
43512;Laerm;34054;52.100;5.116;2024-03-08T02:30:07;32.80;31.57;35.79;;
43512;Laerm;34054;52.100;5.116;2024-03-08T02:30:41;32.76;31.49;35.60;;
43512;Laerm;34054;52.100;5.116;2024-03-08T02:31:13;32.74;31.73;35.10;;
43512;Laerm;34054;52.100;5.116;2024-03-08T02:31:44;32.74;31.50;34.84;;
43512;Laerm;34054;52.100;5.116;2024-03-08T02:32:17;32.76;31.59;34.82;;
43512;Laerm;34054;52.100;5.116;2024-03-08T02:32:49;32.79;31.46;35.04;;
43512;Laerm;34054;52.100;5.116;2024-03-08T02:33:21;32.86;31.28;35.23;;
43512;Laerm;34054;52.100;5.116;2024-03-08T02:33:53;32.80;31.69;34.73;;
43512;Laerm;34054;52.100;5.116;2024-03-08T02:34:26;32.83;31.52;35.46;;
43512;Laerm;34054;52.100;5.116;2024-03-08T02:34:57;32.83;31.53;35.68;;
43512;Laerm;34054;52.100;5.116;2024-03-08T02:35:31;32.78;31.58;35.05;;
43512;Laerm;34054;52.100;5.116;2024-03-08T02:36:05;32.78;31.43;34.60;;
43512;Laerm;34054;52.100;5.116;2024-03-08T02:36:38;32.83;31.61;35.42;;
43512;Laerm;34054;52.100;5.116;2024-03-08T02:37:10;32.76;31.56;34.70;;
43512;Laerm;34054;52.100;5.116;2024-03-08T02:37:41;32.79;31.60;35.10;;
43512;Laerm;34054;52.100;5.116;2024-03-08T02:38:13;32.79;31.49;35.69;;
43512;Laerm;34054;52.100;5.116;2024-03-08T02:38:47;32.83;31.67;34.53;;
43512;Laerm;34054;52.100;5.116;2024-03-08T02:39:19;32.83;31.73;35.04;;
43512;Laerm;34054;52.100;5.116;2024-03-08T02:39:51;32.81;31.62;35.34;;
43512;Laerm;34054;52.100;5.116;2024-03-08T02:40:22;32.78;31.75;35.19;;
43512;Laerm;34054;52.100;5.116;2024-03-08T02:40:54;32.80;31.47;34.59;;
43512;Laerm;34054;52.100;5.116;2024-03-08T02:41:27;32.80;31.75;35.25;;
43512;Laerm;34054;52.100;5.116;2024-03-08T02:41:58;32.84;31.81;34.54;;
43512;Laerm;34054;52.100;5.116;2024-03-08T02:42:30;32.82;31.63;34.99;;
43512;Laerm;34054;52.100;5.116;2024-03-08T02:43:01;32.80;31.72;35.14;;
43512;Laerm;34054;52.100;5.116;2024-03-08T02:43:36;32.87;31.35;35.38;;
43512;Laerm;34054;52.100;5.116;2024-03-08T02:44:07;32.88;31.59;35.66;;
43512;Laerm;34054;52.100;5.116;2024-03-08T02:44:42;32.83;31.39;35.35;;
43512;Laerm;34054;52.100;5.116;2024-03-08T02:45:15;32.87;31.90;35.33;;
43512;Laerm;34054;52.100;5.116;2024-03-08T02:45:48;32.84;31.56;35.03;;
43512;Laerm;34054;52.100;5.116;2024-03-08T02:46:21;32.86;31.57;35.81;;
43512;Laerm;34054;52.100;5.116;2024-03-08T02:46:52;32.88;31.74;35.03;;
43512;Laerm;34054;52.100;5.116;2024-03-08T02:47:26;32.87;31.56;35.77;;
43512;Laerm;34054;52.100;5.116;2024-03-08T02:48:00;32.89;31.27;34.77;;
43512;Laerm;34054;52.100;5.116;2024-03-08T02:48:32;32.87;31.75;35.12;;
43512;Laerm;34054;52.100;5.116;2024-03-08T02:49:03;32.90;31.87;34.78;;
43512;Laerm;34054;52.100;5.116;2024-03-08T02:49:35;32.89;31.76;35.65;;
43512;Laerm;34054;52.100;5.116;2024-03-08T02:50:09;32.88;31.81;35.39;;
43512;Laerm;34054;52.100;5.116;2024-03-08T02:50:41;32.90;31.85;35.32;;
43512;Laerm;34054;52.100;5.116;2024-03-08T02:51:15;32.88;31.63;35.28;;
43512;Laerm;34054;52.100;5.116;2024-03-08T02:51:47;32.93;31.65;34.76;;
43512;Laerm;34054;52.100;5.116;2024-03-08T02:52:19;32.88;31.64;35.60;;
43512;Laerm;34054;52.100;5.116;2024-03-08T02:52:52;32.91;31.75;34.97;;
43512;Laerm;34054;52.100;5.116;2024-03-08T02:53:24;32.97;31.65;35.62;;
43512;Laerm;34054;52.100;5.116;2024-03-08T02:53:55;33.01;31.90;35.43;;
43512;Laerm;34054;52.100;5.116;2024-03-08T02:54:28;32.92;31.84;35.58;;
43512;Laerm;34054;52.100;5.116;2024-03-08T02:55:00;32.93;31.67;35.91;;
43512;Laerm;34054;52.100;5.116;2024-03-08T02:55:32;32.94;31.58;35.66;;
43512;Laerm;34054;52.100;5.116;2024-03-08T02:56:05;32.95;31.49;35.00;;
43512;Laerm;34054;52.100;5.116;2024-03-08T02:56:40;32.96;31.85;35.83;;
43512;Laerm;34054;52.100;5.116;2024-03-08T02:57:12;32.96;31.68;34.98;;
43512;Laerm;34054;52.100;5.116;2024-03-08T02:57:45;32.98;31.75;35.52;;
43512;Laerm;34054;52.100;5.116;2024-03-08T02:58:18;32.98;31.84;35.27;;
43512;Laerm;34054;52.100;5.116;2024-03-08T02:58:51;33.03;31.83;35.01;;
43512;Laerm;34054;52.100;5.116;2024-03-08T02:59:22;33.12;31.94;34.73;;
43512;Laerm;34054;52.100;5.116;2024-03-08T02:59:54;32.98;31.82;34.96;;
43512;Laerm;34054;52.100;5.116;2024-03-08T03:00:27;33.02;31.82;36.16;;
43512;Laerm;34054;52.100;5.116;2024-03-08T03:00:59;33.00;31.91;35.39;;
43512;Laerm;34054;52.100;5.116;2024-03-08T03:01:31;32.98;31.62;35.68;;
43512;Laerm;34054;52.100;5.116;2024-03-08T03:02:04;32.94;31.89;35.43;;